createdAt,value
2019-01-28T00:01:19.621Z,4.20
2019-01-28T00:03:56.995Z,4.20
2019-01-28T00:06:29.833Z,4.20
2019-01-28T00:09:02.067Z,4.20
2019-01-28T00:11:36.520Z,4.20
2019-01-28T00:14:09.533Z,4.30
2019-01-28T00:16:39.722Z,4.20
2019-01-28T00:19:19.902Z,4.20
2019-01-28T00:21:53.973Z,4.20
2019-01-28T00:24:31.573Z,4.20
2019-01-28T00:27:03.944Z,4.20
2019-01-28T00:29:35.089Z,4.20
2019-01-28T00:32:07.585Z,4.20
2019-01-28T00:34:41.644Z,4.20
2019-01-28T00:37:15.914Z,4.20
2019-01-28T00:39:56.393Z,4.30
2019-01-28T00:42:26.863Z,4.20
2019-01-28T00:45:07.635Z,4.20
2019-01-28T00:47:41.891Z,4.20
2019-01-28T00:50:18.885Z,4.10
2019-01-28T00:52:55.364Z,4.10
2019-01-28T00:55:30.486Z,4.00
2019-01-28T00:58:02.274Z,4.00
2019-01-28T01:00:42.683Z,4.00
2019-01-28T01:03:28.180Z,4.00
2019-01-28T01:06:00.445Z,4.00
2019-01-28T01:08:37.052Z,4.10
2019-01-28T01:11:11.765Z,4.10
2019-01-28T01:13:45.573Z,4.00
2019-01-28T01:16:32.311Z,4.00
2019-01-28T01:19:04.076Z,4.00
2019-01-28T01:21:38.936Z,4.00
2019-01-28T01:24:14.690Z,4.00
2019-01-28T01:26:47.159Z,4.00
2019-01-28T01:29:21.056Z,4.00
2019-01-28T01:31:53.658Z,4.00
2019-01-28T01:34:30.702Z,4.00
2019-01-28T01:37:09.652Z,4.00
2019-01-28T01:39:40.033Z,4.00
2019-01-28T01:42:17.870Z,3.90
2019-01-28T01:44:52.042Z,3.90
2019-01-28T01:47:25.837Z,3.90
2019-01-28T01:49:59.921Z,3.90
2019-01-28T01:52:32.871Z,3.90
2019-01-28T01:55:08.725Z,3.80
2019-01-28T01:57:44.449Z,3.80
2019-01-28T02:00:21.376Z,3.80
2019-01-28T02:03:01.814Z,3.70
2019-01-28T02:05:35.806Z,3.70
2019-01-28T02:08:06.922Z,3.60
2019-01-28T02:10:49.464Z,3.60
2019-01-28T02:13:24.942Z,3.60
2019-01-28T02:15:59.421Z,3.60
2019-01-28T02:18:38.908Z,3.60
2019-01-28T02:21:13.510Z,3.60
2019-01-28T02:23:47.535Z,3.60
2019-01-28T02:26:28.759Z,3.60
2019-01-28T02:29:02.221Z,3.50
2019-01-28T02:34:43.537Z,3.50
2019-01-28T02:37:20.780Z,3.40
2019-01-28T02:39:57.528Z,3.30
2019-01-28T02:42:31.257Z,3.20
2019-01-28T02:45:07.427Z,3.30
2019-01-28T02:47:48.015Z,3.20
2019-01-28T02:50:14.670Z,3.20
2019-01-28T02:52:50.125Z,3.20
2019-01-28T02:55:24.097Z,3.20
2019-01-28T02:58:03.472Z,3.20
2019-01-28T03:00:34.405Z,3.20
2019-01-28T03:03:11.351Z,3.10
2019-01-28T03:05:42.202Z,3.20
2019-01-28T03:08:25.176Z,3.10
2019-01-28T03:11:00.080Z,3.10
2019-01-28T03:13:34.296Z,3.10
2019-01-28T03:16:16.706Z,3.00
2019-01-28T03:18:44.996Z,3.00
2019-01-28T03:21:28.403Z,3.00
2019-01-28T03:24:03.929Z,3.00
2019-01-28T03:26:41.718Z,3.00
2019-01-28T03:29:17.618Z,3.00
2019-01-28T03:31:55.077Z,3.00
2019-01-28T03:34:28.198Z,3.10
2019-01-28T03:37:01.527Z,3.10
2019-01-28T03:39:34.974Z,3.10
2019-01-28T03:42:07.773Z,3.10
2019-01-28T03:44:43.664Z,3.10
2019-01-28T03:47:18.471Z,3.10
2019-01-28T03:49:53.886Z,3.10
2019-01-28T03:52:29.738Z,3.10
2019-01-28T03:55:02.053Z,3.10
2019-01-28T03:57:43.192Z,3.10
2019-01-28T04:00:24.766Z,3.10
2019-01-28T04:03:02.426Z,3.00
2019-01-28T04:05:41.161Z,3.00
2019-01-28T04:08:13.305Z,3.10
2019-01-28T04:10:54.457Z,3.00
2019-01-28T04:13:24.803Z,3.00
2019-01-28T04:15:59.511Z,3.00
2019-01-28T04:18:32.832Z,3.00
2019-01-28T04:21:11.467Z,3.00
2019-01-28T04:24:00.941Z,3.00
2019-01-28T04:26:41.987Z,3.00
2019-01-28T04:29:36.075Z,3.00
2019-01-28T04:32:17.976Z,3.00
2019-01-28T04:34:56.238Z,3.00
2019-01-28T04:37:32.267Z,3.00
2019-01-28T04:40:28.926Z,3.00
2019-01-28T04:43:22.190Z,3.00
2019-01-28T04:45:51.887Z,3.10
2019-01-28T04:48:29.492Z,3.10
2019-01-28T04:51:04.864Z,3.10
2019-01-28T04:53:36.965Z,3.10
2019-01-28T04:56:10.570Z,3.10
2019-01-28T05:01:51.354Z,3.20
2019-01-28T05:04:30.094Z,3.20
2019-01-28T05:07:10.236Z,3.20
2019-01-28T05:09:45.263Z,3.20
2019-01-28T05:12:20.584Z,3.20
2019-01-28T05:15:02.136Z,3.20
2019-01-28T05:17:39.304Z,3.20
2019-01-28T05:20:18.873Z,3.20
2019-01-28T05:26:14.037Z,3.20
2019-01-28T05:28:56.185Z,3.10
2019-01-28T05:31:33.476Z,3.10
2019-01-28T05:34:28.206Z,3.10
2019-01-28T05:36:48.241Z,3.10
2019-01-28T05:39:23.053Z,3.20
2019-01-28T05:42:05.190Z,3.20
2019-01-28T05:44:40.570Z,3.20
2019-01-28T05:47:17.327Z,3.20
2019-01-28T05:49:54.113Z,3.30
2019-01-28T05:52:35.834Z,3.30
2019-01-28T05:55:14.502Z,3.30
2019-01-28T05:58:06.169Z,3.30
2019-01-28T06:00:48.195Z,3.30
2019-01-28T06:03:24.852Z,3.30
2019-01-28T06:06:01.548Z,3.40
2019-01-28T06:08:44.914Z,3.40
2019-01-28T06:11:28.192Z,3.40
2019-01-28T06:14:12.960Z,3.40
2019-01-28T06:16:50.775Z,3.40
2019-01-28T06:19:21.155Z,3.40
2019-01-28T06:21:53.610Z,3.40
2019-01-28T06:24:28.690Z,3.40
2019-01-28T06:27:12.364Z,3.40
2019-01-28T06:30:06.369Z,3.40
2019-01-28T06:32:42.518Z,3.40
2019-01-28T06:35:32.873Z,3.40
2019-01-28T06:41:14.097Z,3.40
2019-01-28T06:43:50.628Z,3.40
2019-01-28T06:46:27.660Z,3.40
2019-01-28T06:49:04.166Z,3.40
2019-01-28T06:51:38.227Z,3.40
2019-01-28T06:54:14.882Z,3.40
2019-01-28T06:56:49.116Z,3.40
2019-01-28T06:59:37.221Z,3.40
2019-01-28T07:02:36.970Z,3.30
2019-01-28T07:12:06.106Z,3.30
2019-01-28T07:14:51.261Z,3.40
2019-01-28T07:17:30.841Z,3.40
2019-01-28T07:20:09.284Z,3.40
2019-01-28T07:22:49.288Z,3.40
2019-01-28T07:25:26.137Z,3.40
2019-01-28T07:27:56.435Z,3.40
2019-01-28T07:30:38.298Z,3.50
2019-01-28T07:33:20.093Z,3.50
2019-01-28T07:36:13.665Z,3.50
2019-01-28T07:38:54.863Z,3.50
2019-01-28T07:41:57.387Z,3.50
2019-01-28T07:45:03.707Z,3.50
2019-01-28T07:47:51.269Z,3.50
2019-01-28T07:54:42.144Z,3.40
2019-01-28T07:57:16.103Z,3.40
2019-01-28T07:59:59.484Z,3.50
2019-01-28T08:02:33.512Z,3.50
2019-01-28T08:05:09.275Z,3.60
2019-01-28T08:07:40.648Z,3.60
2019-01-28T08:10:25.019Z,3.60
2019-01-28T08:13:25.114Z,3.60
2019-01-28T08:16:06.006Z,3.60
2019-01-28T08:18:42.431Z,3.60
2019-01-28T08:21:26.076Z,3.70
2019-01-28T08:24:00.501Z,3.70
2019-01-28T08:26:35.101Z,3.80
2019-01-28T08:29:11.003Z,3.80
2019-01-28T08:31:41.421Z,3.80
2019-01-28T08:34:15.552Z,3.90
2019-01-28T08:36:46.047Z,3.90
2019-01-28T08:39:20.516Z,3.90
2019-01-28T08:41:57.913Z,3.90
2019-01-28T08:44:29.548Z,3.90
2019-01-28T08:47:01.746Z,4.00
2019-01-28T08:49:33.968Z,4.00
2019-01-28T08:52:09.297Z,4.00
2019-01-28T08:54:44.096Z,4.00
2019-01-28T08:57:19.263Z,4.10
2019-01-28T08:59:55.314Z,4.10
2019-01-28T09:02:38.255Z,4.20
2019-01-28T09:05:12.459Z,4.20
2019-01-28T09:07:44.701Z,4.20
2019-01-28T09:10:27.643Z,4.20
2019-01-28T09:12:59.021Z,4.30
2019-01-28T09:15:32.133Z,4.30
2019-01-28T09:18:06.952Z,4.40
2019-01-28T09:21:00.269Z,4.40
2019-01-28T09:23:43.206Z,4.40
2019-01-28T09:26:19.217Z,4.40
2019-01-28T09:28:58.933Z,4.50
2019-01-28T09:31:29.552Z,4.50
2019-01-28T09:34:08.613Z,4.50
2019-01-28T09:36:40.181Z,4.60
2019-01-28T09:39:14.750Z,4.60
2019-01-28T09:41:54.160Z,4.60
2019-01-28T09:44:27.544Z,4.60
2019-01-28T09:47:11.716Z,4.60
2019-01-28T09:50:21.509Z,4.60
2019-01-28T09:53:34.911Z,4.60
2019-01-28T09:56:39.023Z,4.50
2019-01-28T09:59:36.375Z,4.60
2019-01-28T10:04:34.289Z,4.70
2019-01-28T10:05:58.534Z,4.60
2019-01-28T10:08:42.591Z,4.60
2019-01-28T10:11:19.623Z,4.70
2019-01-28T10:13:55.943Z,4.70
2019-01-28T10:16:32.154Z,4.70
2019-01-28T10:19:16.865Z,4.80
2019-01-28T10:24:53.175Z,4.90
2019-01-28T10:27:29.004Z,4.90
2019-01-28T10:30:12.940Z,5.00
2019-01-28T10:33:17.840Z,4.90
2019-01-28T10:36:02.382Z,5.00
2019-01-28T10:38:45.050Z,4.90
2019-01-28T10:41:57.596Z,4.90
2019-01-28T10:44:59.479Z,4.90
2019-01-28T10:47:42.187Z,4.80
2019-01-28T10:53:41.607Z,4.70
2019-01-28T10:56:11.904Z,4.70
2019-01-28T10:58:42.044Z,4.80
2019-01-28T11:01:15.255Z,4.80
2019-01-28T11:03:45.611Z,4.90
2019-01-28T11:06:18.959Z,4.90
2019-01-28T11:08:59.726Z,4.80
2019-01-28T11:11:30.791Z,4.80
2019-01-28T11:14:01.352Z,4.90
2019-01-28T11:17:08.090Z,4.90
2019-01-28T11:19:42.249Z,4.90
2019-01-28T11:22:33.546Z,4.80
2019-01-28T11:25:12.913Z,4.80
2019-01-28T11:27:56.369Z,4.70
2019-01-28T11:31:04.353Z,4.80
2019-01-28T11:33:48.880Z,4.80
2019-01-28T11:36:19.487Z,4.80
2019-01-28T11:38:49.942Z,4.90
2019-01-28T11:41:21.836Z,4.90
2019-01-28T11:43:54.888Z,4.90
2019-01-28T11:46:25.410Z,4.80
2019-01-28T11:48:55.795Z,4.80
2019-01-28T11:51:32.951Z,4.80
2019-01-28T11:54:26.119Z,4.80
2019-01-28T11:57:03.036Z,4.80
2019-01-28T11:59:46.645Z,4.80
2019-01-28T12:02:16.817Z,4.80
2019-01-28T12:04:47.018Z,4.80
2019-01-28T12:07:20.429Z,4.80
2019-01-28T12:09:53.318Z,4.80
2019-01-28T12:12:25.159Z,4.90
2019-01-28T12:14:55.717Z,4.90
2019-01-28T12:17:25.935Z,4.90
2019-01-28T12:19:56.775Z,4.90
2019-01-28T12:22:50.352Z,4.80
2019-01-28T12:25:25.186Z,4.80
2019-01-28T12:27:55.729Z,4.70
2019-01-28T12:30:30.234Z,4.80
2019-01-28T12:33:05.228Z,4.70
2019-01-28T12:35:37.214Z,4.70
2019-01-28T12:38:07.643Z,4.70
2019-01-28T12:40:43.328Z,4.60
2019-01-28T12:43:14.283Z,4.60
2019-01-28T12:45:52.513Z,4.60
2019-01-28T12:48:25.381Z,4.50
2019-01-28T12:50:58.098Z,4.50
2019-01-28T12:53:33.058Z,4.50
2019-01-28T12:56:07.616Z,4.40
2019-01-28T12:58:49.998Z,4.40
2019-01-28T13:01:20.765Z,4.40
2019-01-28T13:03:55.968Z,4.40
2019-01-28T13:06:36.305Z,4.30
2019-01-28T13:09:09.747Z,4.40
2019-01-28T13:11:42.791Z,4.30
2019-01-28T13:14:15.542Z,4.30
2019-01-28T13:16:48.498Z,4.30
2019-01-28T13:19:29.896Z,4.30
2019-01-28T13:22:00.068Z,4.30
2019-01-28T13:24:34.389Z,4.30
2019-01-28T13:27:09.787Z,4.30
2019-01-28T13:29:40.720Z,4.20
2019-01-28T13:32:12.125Z,4.20
2019-01-28T13:34:42.557Z,4.20
2019-01-28T13:37:14.523Z,4.20
2019-01-28T13:39:51.817Z,4.20
2019-01-28T13:42:21.170Z,4.20
2019-01-28T13:44:53.340Z,4.10
2019-01-28T13:47:25.047Z,4.10
2019-01-28T13:50:01.641Z,4.10
2019-01-28T13:52:32.793Z,4.10
2019-01-28T13:55:04.572Z,4.10
2019-01-28T13:57:38.505Z,4.10
2019-01-28T14:00:25.376Z,4.10
2019-01-28T14:03:05.998Z,4.10
2019-01-28T14:05:49.105Z,4.00
2019-01-28T14:08:19.795Z,4.00
2019-01-28T14:10:50.340Z,4.00
2019-01-28T14:13:25.781Z,4.00
2019-01-28T14:15:55.907Z,4.00
2019-01-28T14:18:26.171Z,4.00
2019-01-28T14:20:59.505Z,3.90
2019-01-28T14:23:32.930Z,3.90
2019-01-28T14:26:06.703Z,3.90
2019-01-28T14:28:38.180Z,3.90
2019-01-28T14:31:09.289Z,3.90
2019-01-28T14:33:40.517Z,3.90
2019-01-28T14:36:13.386Z,3.90
2019-01-28T14:38:45.841Z,3.90
2019-01-28T14:41:18.562Z,3.80
2019-01-28T14:44:22.275Z,3.70
2019-01-28T14:47:27.862Z,3.70
2019-01-28T14:53:11.596Z,3.70
2019-01-28T14:56:05.868Z,3.70
2019-01-28T14:59:04.178Z,3.70
2019-01-28T15:02:04.803Z,3.70
2019-01-28T15:23:08.000Z,3.50
2019-01-28T15:26:03.153Z,3.50
2019-01-28T15:28:43.332Z,3.50
2019-01-28T15:31:15.315Z,3.50
2019-01-28T15:33:48.818Z,3.50
2019-01-28T15:36:21.846Z,3.50
2019-01-28T15:39:09.224Z,3.50
2019-01-28T15:41:51.313Z,3.50
2019-01-28T15:44:17.622Z,3.50
2019-01-28T15:46:50.727Z,3.40
2019-01-28T15:49:20.122Z,3.40
2019-01-28T15:51:49.480Z,3.40
2019-01-28T15:54:18.947Z,3.40
2019-01-28T15:56:48.373Z,3.40
2019-01-28T15:59:17.794Z,3.40
2019-01-28T16:01:47.250Z,3.40
2019-01-28T16:04:47.968Z,3.40
2019-01-28T16:07:17.416Z,3.40
2019-01-28T16:09:46.936Z,3.40
2019-01-28T16:12:16.343Z,3.40
2019-01-28T16:14:45.798Z,3.40
2019-01-28T16:17:15.306Z,3.40
2019-01-28T16:19:44.771Z,3.40
2019-01-28T16:22:16.132Z,3.40
2019-01-28T16:24:45.907Z,3.40
2019-01-28T16:27:15.786Z,3.40
2019-01-28T16:29:45.866Z,3.40
2019-01-28T16:32:15.224Z,3.40
2019-01-28T16:34:44.725Z,3.50
2019-01-28T16:37:17.651Z,3.40
2019-01-28T16:39:47.653Z,3.40
2019-01-28T16:42:17.367Z,3.40
2019-01-28T16:44:46.768Z,3.50
2019-01-28T16:47:16.282Z,3.50
2019-01-28T16:49:45.741Z,3.50
2019-01-28T16:52:15.202Z,3.40
2019-01-28T16:54:45.601Z,3.50
2019-01-28T16:57:15.775Z,3.40
2019-01-28T16:59:45.307Z,3.50
2019-01-28T17:02:15.261Z,3.50
2019-01-28T17:04:45.003Z,3.50
2019-01-28T17:07:22.178Z,3.40
2019-01-28T17:10:05.618Z,3.50
2019-01-28T17:12:35.207Z,3.50
2019-01-28T17:15:05.705Z,3.50
2019-01-28T17:17:35.198Z,3.50
2019-01-28T17:20:06.463Z,3.50
2019-01-28T17:22:35.924Z,3.50
2019-01-28T17:25:06.713Z,3.50
2019-01-28T17:27:37.782Z,3.50
2019-01-28T17:30:13.201Z,3.50
2019-01-28T17:32:44.356Z,3.50
2019-01-28T17:35:15.454Z,3.50
2019-01-28T17:37:46.599Z,3.40
2019-01-28T17:40:18.399Z,3.50
2019-01-28T17:42:49.859Z,3.50
2019-01-28T17:45:26.323Z,3.50
2019-01-28T17:47:57.694Z,3.50
2019-01-28T17:50:29.009Z,3.50
2019-01-28T17:53:00.032Z,3.50
2019-01-28T17:55:31.393Z,3.50
2019-01-28T17:58:02.587Z,3.50
2019-01-28T18:00:44.657Z,3.50
2019-01-28T18:03:15.767Z,3.50
2019-01-28T18:05:46.881Z,3.50
2019-01-28T18:08:17.933Z,3.50
2019-01-28T18:10:49.008Z,3.50
2019-01-28T18:13:20.195Z,3.40
2019-01-28T18:19:09.388Z,3.40
2019-01-28T18:21:43.327Z,3.40
2019-01-28T18:24:17.277Z,3.50
2019-01-28T18:26:48.235Z,3.40
2019-01-28T18:29:37.641Z,3.40
2019-01-28T18:32:19.962Z,3.40
2019-01-28T18:34:51.842Z,3.50
2019-01-28T18:37:24.880Z,3.40
2019-01-28T18:39:56.106Z,3.40
2019-01-28T18:42:29.910Z,3.40
2019-01-28T18:45:01.058Z,3.40
2019-01-28T18:47:32.053Z,3.30
2019-01-28T18:50:07.113Z,3.30
2019-01-28T18:52:38.185Z,3.30
2019-01-28T18:55:10.408Z,3.40
2019-01-28T18:57:41.470Z,3.40
2019-01-28T19:00:24.742Z,3.40
2019-01-28T19:02:56.366Z,3.40
2019-01-28T19:05:43.130Z,3.40
2019-01-28T19:08:31.722Z,3.40
2019-01-28T19:11:25.902Z,3.40
2019-01-28T19:14:10.907Z,3.50
2019-01-28T19:16:56.847Z,3.40
2019-01-28T19:19:45.220Z,3.40
2019-01-28T19:22:14.719Z,3.40
2019-01-28T19:24:44.170Z,3.40
2019-01-28T19:27:15.639Z,3.40
2019-01-28T19:29:47.403Z,3.40
2019-01-28T19:32:16.865Z,3.40
2019-01-28T19:34:46.344Z,3.40
2019-01-28T19:37:15.770Z,3.50
2019-01-28T19:39:45.157Z,3.40
2019-01-28T19:42:14.579Z,3.50
2019-01-28T19:44:45.287Z,3.50
2019-01-28T19:47:14.708Z,3.50
2019-01-28T19:49:44.349Z,3.50
2019-01-28T19:52:14.224Z,3.50
2019-01-28T19:54:43.663Z,3.50
2019-01-28T19:57:14.450Z,3.50
2019-01-28T19:59:44.338Z,3.60
2019-01-28T20:02:13.885Z,3.60
2019-01-28T20:04:44.815Z,3.60
2019-01-28T20:07:14.568Z,3.60
2019-01-28T20:09:44.056Z,3.60
2019-01-28T20:12:13.818Z,3.60
2019-01-28T20:14:43.262Z,3.60
2019-01-28T20:17:12.661Z,3.60
2019-01-28T20:19:42.059Z,3.60
2019-01-28T20:22:16.826Z,3.60
2019-01-28T20:24:49.257Z,3.60
2019-01-28T20:27:29.595Z,3.60
2019-01-28T20:29:59.052Z,3.60
2019-01-28T20:32:28.417Z,3.60
2019-01-28T20:34:57.837Z,3.60
2019-01-28T20:37:27.335Z,3.60
2019-01-28T20:39:56.811Z,3.50
2019-01-28T20:42:26.260Z,3.50
2019-01-28T20:45:02.077Z,3.50
2019-01-28T20:47:31.593Z,3.50
2019-01-28T20:50:01.001Z,3.50
2019-01-28T20:52:30.453Z,3.40
2019-01-28T20:55:00.027Z,3.40
2019-01-28T20:57:29.446Z,3.50
2019-01-28T20:59:58.853Z,3.40
2019-01-28T21:02:28.207Z,3.50
2019-01-28T21:04:57.938Z,3.50
2019-01-28T21:07:27.547Z,3.40
2019-01-28T21:09:56.983Z,3.50
2019-01-28T21:12:28.953Z,3.50
2019-01-28T21:14:58.438Z,3.50
2019-01-28T21:17:29.130Z,3.50
2019-01-28T21:19:58.886Z,3.50
2019-01-28T21:22:28.280Z,3.40
2019-01-28T21:24:58.184Z,3.40
2019-01-28T21:27:27.656Z,3.40
2019-01-28T21:29:57.101Z,3.40
2019-01-28T21:32:26.524Z,3.40
2019-01-28T21:34:55.998Z,3.40
2019-01-28T21:37:31.662Z,3.40
2019-01-28T21:40:01.123Z,3.40
2019-01-28T21:42:30.527Z,3.40
2019-01-28T21:44:59.998Z,3.40
2019-01-28T21:47:29.365Z,3.40
2019-01-28T21:49:58.853Z,3.40
2019-01-28T21:52:28.271Z,3.40
2019-01-28T21:54:57.647Z,3.30
2019-01-28T21:57:27.090Z,3.30
2019-01-28T21:59:56.498Z,3.30
2019-01-28T22:02:25.970Z,3.30
2019-01-28T22:04:55.353Z,3.30
2019-01-28T22:07:24.671Z,3.30
2019-01-28T22:09:54.101Z,3.30
2019-01-28T22:12:23.480Z,3.30
2019-01-28T22:14:52.961Z,3.30
2019-01-28T22:17:22.315Z,3.30
2019-01-28T22:19:51.735Z,3.30
2019-01-28T22:22:21.178Z,3.30
2019-01-28T22:24:50.546Z,3.30
2019-01-28T22:27:20.013Z,3.30
2019-01-28T22:29:49.323Z,3.40
2019-01-28T22:32:18.760Z,3.30
2019-01-28T22:34:48.264Z,3.30
2019-01-28T22:37:17.648Z,3.30
2019-01-28T22:39:47.068Z,3.30
2019-01-28T22:42:21.229Z,3.30
2019-01-28T22:44:47.536Z,3.30
2019-01-28T22:47:16.944Z,3.30
2019-01-28T22:49:46.365Z,3.20
2019-01-28T22:52:15.808Z,3.30
2019-01-28T22:54:45.663Z,3.30
2019-01-28T22:57:15.120Z,3.30
2019-01-28T22:59:44.559Z,3.30
2019-01-28T23:02:13.985Z,3.30
2019-01-28T23:04:43.324Z,3.30
2019-01-28T23:07:12.690Z,3.20
2019-01-28T23:09:42.094Z,3.20
2019-01-28T23:12:11.512Z,3.20
2019-01-28T23:14:40.895Z,3.10
2019-01-28T23:17:10.275Z,3.10
2019-01-28T23:19:39.680Z,3.10
2019-01-28T23:22:16.211Z,3.10
2019-01-28T23:24:40.176Z,3.10
2019-01-28T23:27:09.615Z,3.10
2019-01-28T23:29:39.018Z,3.10
2019-01-28T23:32:09.225Z,3.10
2019-01-28T23:34:38.629Z,3.00
2019-01-28T23:37:07.954Z,3.00
2019-01-28T23:39:37.366Z,3.00
2019-01-28T23:42:07.203Z,3.00
2019-01-28T23:44:38.248Z,3.00
2019-01-28T23:47:07.676Z,3.00
2019-01-28T23:49:37.005Z,3.00
2019-01-28T23:52:08.974Z,3.00
2019-01-28T23:54:40.547Z,3.00
2019-01-28T23:57:09.970Z,3.00
2019-01-28T23:59:39.491Z,3.00
